Time;durP1;ratioP1;P1;durP2;ratioP2;P2;SDS_P1;SDS_P2;PMS_P1;PMS_P2;Temp;Humidity;BMP_temperature;BMP_pressure;BME280_temperature;BME280_humidity;BME280_pressure;Samples;Min_cycle;Max_cycle;Signal;HPM_P1;HPM_P2
2022/08/17 00:01:14;;;;;;;;;;;26.70;75.50;;;;;;5065129;28;19905;-89
2022/08/17 00:03:41;;;;;;;;;;;26.70;75.40;;;;;;5072347;28;20376;-89
2022/08/17 00:06:11;;;;;;;;;;;26.70;75.20;;;;;;5060029;28;19904;-90
2022/08/17 00:08:48;;;;;;;;;;;26.70;75.30;;;;;;5056511;28;19904;-89
2022/08/17 00:11:19;;;;;;;;;;;26.70;75.20;;;;;;5085837;28;19904;-89
2022/08/17 00:13:46;;;;;;;;;;;26.70;75.20;;;;;;5059796;28;19912;-89
2022/08/17 00:16:14;;;;;;;;;;;26.60;75.30;;;;;;5055823;28;19904;-89
2022/08/17 00:18:40;;;;;;;;;;;26.60;75.40;;;;;;5058995;28;19951;-89
2022/08/17 00:21:07;;;;;;;;;;;26.60;75.30;;;;;;5055676;28;19912;-89
2022/08/17 00:23:33;;;;;;;;;;;26.60;75.30;;;;;;5059431;28;19926;-89
2022/08/17 00:26:00;;;;;;;;;;;26.50;75.10;;;;;;5051604;28;19904;-89
2022/08/17 00:28:26;;;;;;;;;;;26.50;75.40;;;;;;5055974;28;19904;-89
2022/08/17 00:30:52;;;;;;;;;;;26.50;75.60;;;;;;5038521;28;19908;-88
2022/08/17 00:33:18;;;;;;;;;;;26.50;75.70;;;;;;5060186;28;19958;-88
2022/08/17 00:35:45;;;;;;;;;;;26.50;75.70;;;;;;5066941;28;20011;-89
2022/08/17 00:38:11;;;;;;;;;;;26.50;75.90;;;;;;5052533;28;19905;-89
2022/08/17 00:40:42;;;;;;;;;;;26.40;75.90;;;;;;5042674;28;19921;-88
2022/08/17 00:43:13;;;;;;;;;;;26.40;76.00;;;;;;5062863;28;19904;-89
2022/08/17 00:45:38;;;;;;;;;;;26.40;76.20;;;;;;5054236;28;19904;-89
2022/08/17 00:48:04;;;;;;;;;;;26.40;76.20;;;;;;5057223;28;20304;-89
2022/08/17 00:50:29;;;;;;;;;;;26.30;76.20;;;;;;5044759;28;19909;-90
2022/08/17 00:52:56;;;;;;;;;;;26.30;76.50;;;;;;5038990;28;19974;-89
2022/08/17 00:55:22;;;;;;;;;;;26.30;76.50;;;;;;5052983;28;19909;-89
2022/08/17 00:57:54;;;;;;;;;;;26.30;76.60;;;;;;5057810;28;19905;-89
2022/08/17 01:00:25;;;;;;;;;;;26.30;76.60;;;;;;5074373;28;19912;-89
2022/08/17 01:02:53;;;;;;;;;;;26.20;76.60;;;;;;5059709;28;19972;-88
2022/08/17 01:05:22;;;;;;;;;;;26.20;76.70;;;;;;5055419;28;19940;-89
2022/08/17 01:07:49;;;;;;;;;;;26.20;76.80;;;;;;5057191;28;19904;-89
2022/08/17 01:10:16;;;;;;;;;;;26.20;76.90;;;;;;5037753;28;19916;-89
2022/08/17 01:12:42;;;;;;;;;;;26.20;77.00;;;;;;5076910;28;19931;-89
2022/08/17 01:15:08;;;;;;;;;;;26.10;77.10;;;;;;5042453;28;20361;-90
2022/08/17 01:17:33;;;;;;;;;;;26.10;77.10;;;;;;5061688;28;19908;-87
2022/08/17 01:19:59;;;;;;;;;;;26.10;77.30;;;;;;5041797;28;19909;-88
2022/08/17 01:22:25;;;;;;;;;;;26.10;77.40;;;;;;5049567;28;20319;-89
2022/08/17 01:25:01;;;;;;;;;;;26.00;77.60;;;;;;5043011;28;19915;-90
2022/08/17 01:27:27;;;;;;;;;;;26.00;77.70;;;;;;5056715;28;19912;-90
2022/08/17 01:29:57;;;;;;;;;;;26.00;77.80;;;;;;5064498;28;19995;-89
2022/08/17 01:32:24;;;;;;;;;;;26.00;77.60;;;;;;5068616;28;19915;-89
2022/08/17 01:34:51;;;;;;;;;;;26.00;77.70;;;;;;5082639;28;19904;-90
2022/08/17 01:37:18;;;;;;;;;;;25.90;78.00;;;;;;5065952;28;19909;-90
2022/08/17 01:39:46;;;;;;;;;;;25.90;78.00;;;;;;5055354;28;19909;-89
2022/08/17 01:42:19;;;;;;;;;;;25.90;78.00;;;;;;5061122;28;19904;-90
2022/08/17 01:44:45;;;;;;;;;;;25.90;78.20;;;;;;5063208;28;19912;-89
2022/08/17 01:47:11;;;;;;;;;;;25.80;78.00;;;;;;5059522;28;19915;-89
2022/08/17 01:49:37;;;;;;;;;;;25.80;78.00;;;;;;5060686;28;19908;-91
2022/08/17 01:52:07;;;;;;;;;;;25.80;78.20;;;;;;5047021;28;19920;-90
2022/08/17 01:54:33;;;;;;;;;;;25.80;78.00;;;;;;5046542;28;19908;-89
2022/08/17 01:56:58;;;;;;;;;;;25.80;78.00;;;;;;5056592;28;19912;-90
2022/08/17 01:59:24;;;;;;;;;;;25.80;78.30;;;;;;5040777;28;19995;-89
2022/08/17 02:01:50;;;;;;;;;;;25.70;78.50;;;;;;5056364;28;19952;-90
2022/08/17 02:04:15;;;;;;;;;;;25.70;78.70;;;;;;5043381;28;19912;-90
2022/08/17 02:06:44;;;;;;;;;;;25.70;78.60;;;;;;5063455;23;19970;-94
2022/08/17 02:09:10;;;;;;;;;;;25.60;78.50;;;;;;5087766;28;20007;-95
2022/08/17 02:11:39;;;;;;;;;;;25.60;78.60;;;;;;5069435;28;20394;-95
2022/08/17 02:14:05;;;;;;;;;;;25.60;78.80;;;;;;5088964;28;19915;-95
2022/08/17 02:16:32;;;;;;;;;;;25.60;78.90;;;;;;5086932;28;19908;-95
2022/08/17 02:19:00;;;;;;;;;;;25.60;78.90;;;;;;5087874;28;19922;-95
2022/08/17 02:21:26;;;;;;;;;;;25.60;79.10;;;;;;5068824;28;19939;-94
2022/08/17 02:23:52;;;;;;;;;;;25.50;79.20;;;;;;5086517;28;19904;-95
2022/08/17 02:26:17;;;;;;;;;;;25.50;79.20;;;;;;5083591;28;19929;-94
2022/08/17 02:28:43;;;;;;;;;;;25.50;79.40;;;;;;5084085;28;20408;-95
2022/08/17 02:31:10;;;;;;;;;;;25.40;79.40;;;;;;5066154;28;20310;-96
2022/08/17 02:33:35;;;;;;;;;;;25.40;79.50;;;;;;5082775;28;19930;-95
2022/08/17 02:36:04;;;;;;;;;;;25.40;79.60;;;;;;5081782;28;19908;-94
2022/08/17 02:38:30;;;;;;;;;;;25.40;79.90;;;;;;5081400;28;19908;-94
2022/08/17 02:40:57;;;;;;;;;;;25.40;79.80;;;;;;5082084;28;19904;-94
2022/08/17 02:43:23;;;;;;;;;;;25.30;79.80;;;;;;5063071;28;19915;-95
2022/08/17 02:45:49;;;;;;;;;;;25.30;79.90;;;;;;5080178;28;19904;-94
2022/08/17 02:48:15;;;;;;;;;;;25.30;80.10;;;;;;5079796;28;20253;-95
2022/08/17 02:50:40;;;;;;;;;;;25.30;80.20;;;;;;5079765;28;19904;-95
2022/08/17 02:53:06;;;;;;;;;;;25.30;80.30;;;;;;5063637;28;19919;-95
2022/08/17 02:55:33;;;;;;;;;;;25.20;80.30;;;;;;5063260;28;20367;-95
2022/08/17 02:57:58;;;;;;;;;;;25.20;80.50;;;;;;5080137;28;19930;-94
2022/08/17 03:00:27;;;;;;;;;;;25.20;80.40;;;;;;5079274;28;19904;-95
2022/08/17 03:02:55;;;;;;;;;;;25.10;80.50;;;;;;5079679;28;19911;-94
2022/08/17 03:05:22;;;;;;;;;;;25.10;80.70;;;;;;5063315;28;19915;-95
2022/08/17 03:07:47;;;;;;;;;;;25.10;80.80;;;;;;5079117;28;20387;-95
2022/08/17 03:10:13;;;;;;;;;;;25.10;80.90;;;;;;5063091;28;19939;-95
2022/08/17 03:12:40;;;;;;;;;;;25.10;80.90;;;;;;5062512;28;19977;-95
2022/08/17 03:15:13;;;;;;;;;;;25.00;81.00;;;;;;5079140;28;19904;-95
2022/08/17 03:17:38;;;;;;;;;;;25.00;81.20;;;;;;5079039;28;20349;-96
2022/08/17 03:20:05;;;;;;;;;;;25.00;81.20;;;;;;5079320;28;19926;-95
2022/08/17 03:22:34;;;;;;;;;;;25.00;81.40;;;;;;5078511;28;19904;-95
2022/08/17 03:25:00;;;;;;;;;;;25.00;81.60;;;;;;5079067;28;19911;-95
2022/08/17 03:27:25;;;;;;;;;;;24.90;81.60;;;;;;5078218;28;19904;-94
2022/08/17 03:29:51;;;;;;;;;;;24.90;81.70;;;;;;5078170;28;19904;-95
2022/08/17 03:32:19;;;;;;;;;;;24.90;81.70;;;;;;5061891;28;19916;-93
2022/08/17 03:34:45;;;;;;;;;;;24.90;81.80;;;;;;5078985;28;19904;-95
2022/08/17 03:37:11;;;;;;;;;;;24.80;81.80;;;;;;5079573;28;19904;-94
2022/08/17 03:39:37;;;;;;;;;;;24.90;81.80;;;;;;5062353;28;19908;-94
2022/08/17 03:42:06;;;;;;;;;;;24.80;81.70;;;;;;5079165;28;19982;-96
2022/08/17 03:44:32;;;;;;;;;;;24.80;82.00;;;;;;5079753;28;19919;-95
2022/08/17 03:57:54;;;;;;;;;;;24.70;82.60;;;;;;5082180;28;19962;-95
2022/08/17 04:00:20;;;;;;;;;;;24.70;82.60;;;;;;5078488;28;19942;-95
2022/08/17 04:02:46;;;;;;;;;;;24.70;82.90;;;;;;5078963;28;20352;-96
2022/08/17 04:05:13;;;;;;;;;;;24.70;82.90;;;;;;5078211;28;19919;-95
2022/08/17 04:07:40;;;;;;;;;;;24.60;83.10;;;;;;5061887;28;19920;-94
2022/08/17 04:10:05;;;;;;;;;;;24.70;83.10;;;;;;5078352;28;20265;-95
2022/08/17 04:12:41;;;;;;;;;;;24.70;83.10;;;;;;5078766;28;19912;-95
2022/08/17 04:15:07;;;;;;;;;;;24.70;83.30;;;;;;5081128;28;19926;-95
2022/08/17 04:17:33;;;;;;;;;;;24.70;83.50;;;;;;5082094;28;19904;-95
2022/08/17 04:19:58;;;;;;;;;;;24.60;83.40;;;;;;5081839;28;19911;-94
2022/08/17 04:22:24;;;;;;;;;;;24.60;83.50;;;;;;5064468;28;19994;-94
2022/08/17 04:24:49;;;;;;;;;;;24.60;83.40;;;;;;5081472;28;20349;-94
2022/08/17 04:27:18;;;;;;;;;;;24.60;83.50;;;;;;5080379;28;20337;-94
2022/08/17 04:29:43;;;;;;;;;;;24.60;83.60;;;;;;5065177;28;19908;-95
2022/08/17 04:32:09;;;;;;;;;;;24.60;83.70;;;;;;5084545;28;19908;-95
2022/08/17 04:34:47;;;;;;;;;;;24.60;83.70;;;;;;5085557;28;19908;-93
2022/08/17 04:37:19;;;;;;;;;;;24.60;83.80;;;;;;5066725;28;20425;-95
2022/08/17 04:42:05;;;;;;;;;;;24.60;83.70;;;;;;5067817;28;20013;-95
2022/08/17 04:42:37;;;;;;;;;;;24.60;83.70;;;;;;5087707;28;19971;-95
2022/08/17 04:45:03;;;;;;;;;;;24.60;83.80;;;;;;5083300;28;19911;-93
2022/08/17 04:47:29;;;;;;;;;;;24.60;83.80;;;;;;5062676;28;20283;-94
2022/08/17 04:49:54;;;;;;;;;;;24.60;83.60;;;;;;5081832;28;19947;-94
2022/08/17 04:52:20;;;;;;;;;;;24.50;83.50;;;;;;5083647;28;19908;-94
2022/08/17 04:54:45;;;;;;;;;;;24.50;83.50;;;;;;5083399;28;19904;-93
2022/08/17 04:57:11;;;;;;;;;;;24.60;83.60;;;;;;5082470;28;19904;-95
2022/08/17 04:59:37;;;;;;;;;;;24.50;83.50;;;;;;5066020;28;19908;-94
2022/08/17 05:02:02;;;;;;;;;;;24.50;83.60;;;;;;5083100;28;19904;-94
2022/08/17 05:04:28;;;;;;;;;;;24.50;83.50;;;;;;5083254;28;19906;-95
2022/08/17 05:06:54;;;;;;;;;;;24.50;83.40;;;;;;5074476;28;19936;-95
2022/08/17 05:09:20;;;;;;;;;;;24.50;83.60;;;;;;5060362;28;19992;-94
2022/08/17 05:11:45;;;;;;;;;;;24.50;83.50;;;;;;5043778;28;19909;-94
2022/08/17 05:14:11;;;;;;;;;;;24.50;83.60;;;;;;5060853;28;19909;-94
2022/08/17 05:16:37;;;;;;;;;;;24.50;83.60;;;;;;5062398;28;20433;-93
2022/08/17 05:19:05;;;;;;;;;;;24.40;83.70;;;;;;5061666;28;19912;-94
2022/08/17 05:21:31;;;;;;;;;;;24.40;83.90;;;;;;5046558;28;19920;-94
2022/08/17 05:23:58;;;;;;;;;;;24.40;83.80;;;;;;5047144;28;19913;-95
2022/08/17 05:26:24;;;;;;;;;;;24.40;83.60;;;;;;5061219;28;19932;-94
2022/08/17 05:28:50;;;;;;;;;;;24.40;83.60;;;;;;5059660;28;19999;-95
2022/08/17 05:31:15;;;;;;;;;;;24.40;83.50;;;;;;5059556;28;19948;-94
2022/08/17 05:33:41;;;;;;;;;;;24.40;83.50;;;;;;5042327;28;19917;-94
2022/08/17 05:36:08;;;;;;;;;;;24.40;83.50;;;;;;5058325;28;19909;-93
2022/08/17 05:38:34;;;;;;;;;;;24.40;83.60;;;;;;5058623;28;19905;-93
2022/08/17 05:41:05;;;;;;;;;;;24.40;83.70;;;;;;5025975;28;19909;-93
2022/08/17 05:43:33;;;;;;;;;;;24.40;83.70;;;;;;5058251;28;19962;-94
2022/08/17 05:46:21;;;;;;;;;;;24.40;83.80;;;;;;5059652;28;19904;-95
2022/08/17 05:48:48;;;;;;;;;;;24.40;83.80;;;;;;5058648;28;19991;-92
2022/08/17 05:51:19;;;;;;;;;;;24.40;83.80;;;;;;5058018;28;20369;-91
2022/08/17 05:53:45;;;;;;;;;;;24.40;83.80;;;;;;5053444;28;19971;-91
2022/08/17 05:56:16;;;;;;;;;;;24.40;83.70;;;;;;5053501;28;19912;-91
2022/08/17 05:59:05;;;;;;;;;;;24.30;83.90;;;;;;5058260;28;19943;-90
2022/08/17 06:01:46;;;;;;;;;;;24.40;84.30;;;;;;5054079;28;20351;-92
2022/08/17 06:04:24;;;;;;;;;;;24.30;83.90;;;;;;5065941;28;19905;-91
2022/08/17 06:07:20;;;;;;;;;;;24.30;83.80;;;;;;5056269;28;19919;-92
2022/08/17 06:09:55;;;;;;;;;;;24.30;84.00;;;;;;5050332;28;20257;-91
2022/08/17 06:12:21;;;;;;;;;;;24.30;84.10;;;;;;5066052;28;19962;-92
2022/08/17 06:14:46;;;;;;;;;;;24.30;84.30;;;;;;5042400;28;19912;-91
2022/08/17 06:17:13;;;;;;;;;;;24.30;84.30;;;;;;5060563;28;19970;-91
2022/08/17 06:19:51;;;;;;;;;;;24.30;84.30;;;;;;5071905;28;19912;-93
2022/08/17 06:22:21;;;;;;;;;;;24.30;84.10;;;;;;5076812;28;19904;-93
2022/08/17 06:24:47;;;;;;;;;;;24.30;84.20;;;;;;5064960;28;19923;-93
2022/08/17 06:27:15;;;;;;;;;;;24.30;84.40;;;;;;5061178;28;19904;-91
2022/08/17 06:29:59;;;;;;;;;;;24.20;84.40;;;;;;5063019;28;19905;-91
2022/08/17 06:32:25;;;;;;;;;;;24.30;84.60;;;;;;5065486;28;20354;-91
2022/08/17 06:34:54;;;;;;;;;;;24.20;84.90;;;;;;5068949;28;19905;-91
2022/08/17 06:37:38;;;;;;;;;;;24.20;86.10;;;;;;5065703;28;19947;-91
2022/08/17 06:40:18;;;;;;;;;;;24.20;86.70;;;;;;5066286;28;19911;-91
2022/08/17 06:43:02;;;;;;;;;;;24.20;87.00;;;;;;5068165;28;19927;-88
2022/08/17 06:45:36;;;;;;;;;;;24.20;87.60;;;;;;5076451;28;19908;-88
2022/08/17 06:48:08;;;;;;;;;;;24.20;88.00;;;;;;5074423;28;19912;-88
2022/08/17 06:50:39;;;;;;;;;;;24.20;88.30;;;;;;5063993;28;19904;-89
2022/08/17 06:53:17;;;;;;;;;;;24.20;88.60;;;;;;5075048;28;19908;-88
2022/08/17 06:55:45;;;;;;;;;;;24.20;89.00;;;;;;5068505;28;19945;-87
2022/08/17 06:58:12;;;;;;;;;;;24.20;89.10;;;;;;5069930;28;19905;-89
2022/08/17 07:00:43;;;;;;;;;;;24.20;89.50;;;;;;5062642;28;19931;-93
2022/08/17 07:03:14;;;;;;;;;;;24.20;89.80;;;;;;5062593;28;19912;-92
2022/08/17 07:06:18;;;;;;;;;;;24.10;90.00;;;;;;5075209;28;19904;-94
2022/08/17 07:08:49;;;;;;;;;;;24.20;90.20;;;;;;4988976;28;19952;-88
2022/08/17 07:11:18;;;;;;;;;;;24.20;90.40;;;;;;4981615;28;20362;-87
2022/08/17 07:13:49;;;;;;;;;;;24.10;90.60;;;;;;5022102;28;19915;-86
2022/08/17 07:16:35;;;;;;;;;;;24.10;90.70;;;;;;5090686;28;19904;-92
2022/08/17 07:19:01;;;;;;;;;;;24.10;90.90;;;;;;5065032;28;19998;-93
2022/08/17 07:21:45;;;;;;;;;;;24.10;91.00;;;;;;5077253;28;19967;-92
2022/08/17 07:24:30;;;;;;;;;;;24.10;91.20;;;;;;5093857;28;19910;-92
2022/08/17 07:27:06;;;;;;;;;;;24.10;91.60;;;;;;5085747;28;19904;-92
2022/08/17 07:29:35;;;;;;;;;;;24.10;91.50;;;;;;5077913;28;19909;-92
2022/08/17 07:32:00;;;;;;;;;;;24.10;91.60;;;;;;5083307;28;19904;-89
2022/08/17 07:34:26;;;;;;;;;;;24.10;91.80;;;;;;5095724;28;19908;-89
2022/08/17 07:37:01;;;;;;;;;;;24.00;91.80;;;;;;5071727;28;19904;-89
2022/08/17 07:39:29;;;;;;;;;;;24.00;92.00;;;;;;5082024;28;19998;-89
2022/08/17 07:42:00;;;;;;;;;;;24.10;92.10;;;;;;5084412;28;20372;-89
2022/08/17 07:44:25;;;;;;;;;;;24.00;92.30;;;;;;5090635;28;20243;-89
2022/08/17 07:49:39;;;;;;;;;;;24.10;92.40;;;;;;5092513;28;19915;-88
2022/08/17 07:52:07;;;;;;;;;;;24.10;92.50;;;;;;5078573;28;19904;-88
2022/08/17 07:54:35;;;;;;;;;;;24.10;92.60;;;;;;5064601;28;19904;-88
2022/08/17 07:57:04;;;;;;;;;;;24.10;92.70;;;;;;5081423;28;19904;-87
2022/08/17 07:59:31;;;;;;;;;;;24.10;92.70;;;;;;5077099;28;19905;-86
2022/08/17 08:01:57;;;;;;;;;;;24.10;92.80;;;;;;5086713;28;20279;-87
2022/08/17 08:04:22;;;;;;;;;;;24.10;92.80;;;;;;5089370;28;19904;-87
2022/08/17 08:06:51;;;;;;;;;;;24.10;92.90;;;;;;5084584;28;19923;-87
2022/08/17 08:09:36;;;;;;;;;;;24.10;93.00;;;;;;5043051;28;20273;-87
2022/08/17 08:12:20;;;;;;;;;;;24.10;93.00;;;;;;5043242;28;19905;-87
2022/08/17 08:15:12;;;;;;;;;;;24.10;93.10;;;;;;5066802;28;19955;-87
2022/08/17 08:17:46;;;;;;;;;;;24.10;93.20;;;;;;5043095;28;19915;-87
2022/08/17 08:20:11;;;;;;;;;;;24.10;93.30;;;;;;5053875;28;20346;-87
2022/08/17 08:23:00;;;;;;;;;;;24.10;93.40;;;;;;5064238;28;19924;-88
2022/08/17 08:25:36;;;;;;;;;;;24.10;93.50;;;;;;5054153;28;19905;-87
2022/08/17 08:28:09;;;;;;;;;;;24.10;93.70;;;;;;5066379;28;19945;-88
2022/08/17 08:30:39;;;;;;;;;;;24.10;93.80;;;;;;5062778;28;19909;-87
2022/08/17 08:33:06;;;;;;;;;;;24.10;94.00;;;;;;5034767;28;19972;-89
2022/08/17 08:35:43;;;;;;;;;;;24.20;94.10;;;;;;5049459;28;20366;-86
2022/08/17 08:38:47;;;;;;;;;;;24.20;94.20;;;;;;5064785;28;19904;-86
2022/08/17 08:41:12;;;;;;;;;;;24.20;94.30;;;;;;4978533;28;19906;-85
2022/08/17 08:43:48;;;;;;;;;;;24.20;94.40;;;;;;4976410;28;19913;-86
2022/08/17 08:46:18;;;;;;;;;;;24.30;94.50;;;;;;5021278;28;19950;-86
2022/08/17 08:48:49;;;;;;;;;;;24.30;94.80;;;;;;5054726;28;19905;-85
2022/08/17 08:51:26;;;;;;;;;;;24.30;94.60;;;;;;5045244;28;19928;-86
2022/08/17 08:54:02;;;;;;;;;;;24.30;94.80;;;;;;5064528;28;19915;-86
2022/08/17 08:56:43;;;;;;;;;;;24.30;94.90;;;;;;5073734;28;20002;-86
2022/08/17 08:59:23;;;;;;;;;;;24.30;94.70;;;;;;5075585;28;19933;-87
2022/08/17 09:02:07;;;;;;;;;;;24.20;94.70;;;;;;5057672;28;19905;-87
2022/08/17 09:04:34;;;;;;;;;;;24.20;94.70;;;;;;5057376;28;19904;-86
2022/08/17 09:07:26;;;;;;;;;;;24.20;94.90;;;;;;5055798;28;19917;-85
2022/08/17 09:09:56;;;;;;;;;;;24.20;95.00;;;;;;5034454;28;20282;-85
2022/08/17 09:12:28;;;;;;;;;;;24.20;95.10;;;;;;5045106;28;19909;-86
2022/08/17 09:15:01;;;;;;;;;;;24.20;95.30;;;;;;5050796;28;19995;-85
2022/08/17 09:17:45;;;;;;;;;;;24.20;95.40;;;;;;5057074;28;19905;-85
2022/08/17 09:20:17;;;;;;;;;;;24.20;95.40;;;;;;5039075;28;19905;-86
2022/08/17 09:22:47;;;;;;;;;;;24.20;95.50;;;;;;5071679;28;20040;-86
2022/08/17 09:25:22;;;;;;;;;;;24.20;95.40;;;;;;5052250;28;19911;-87
2022/08/17 09:27:47;;;;;;;;;;;24.20;95.50;;;;;;5058049;28;20047;-88
2022/08/17 09:30:13;;;;;;;;;;;24.30;95.50;;;;;;5058768;28;20358;-88
2022/08/17 09:32:40;;;;;;;;;;;24.30;95.60;;;;;;5038176;28;20012;-87
2022/08/17 09:35:18;;;;;;;;;;;24.30;95.50;;;;;;5066023;28;19904;-87
2022/08/17 09:37:50;;;;;;;;;;;24.40;95.60;;;;;;5061233;28;19904;-88
2022/08/17 09:40:18;;;;;;;;;;;24.40;95.60;;;;;;5059053;28;19906;-87
2022/08/17 09:42:47;;;;;;;;;;;24.40;95.70;;;;;;5076525;28;19940;-88
2022/08/17 09:45:22;;;;;;;;;;;24.40;95.60;;;;;;5048345;28;19905;-86
2022/08/17 09:47:52;;;;;;;;;;;24.50;95.70;;;;;;5056505;28;19974;-88
2022/08/17 09:50:23;;;;;;;;;;;24.50;95.70;;;;;;5050223;28;19940;-88
2022/08/17 09:52:55;;;;;;;;;;;24.50;95.60;;;;;;5063755;28;19972;-87
2022/08/17 09:55:25;;;;;;;;;;;24.50;95.60;;;;;;5045020;28;20436;-87
2022/08/17 09:57:53;;;;;;;;;;;24.60;95.60;;;;;;5061102;28;19906;-88
2022/08/17 10:00:22;;;;;;;;;;;24.60;95.60;;;;;;5082523;28;19915;-87
2022/08/17 10:03:00;;;;;;;;;;;24.60;95.60;;;;;;5092633;28;19920;-88
2022/08/17 10:05:29;;;;;;;;;;;24.60;95.50;;;;;;5062150;28;19950;-87
2022/08/17 10:07:57;;;;;;;;;;;24.60;95.50;;;;;;5110460;28;19916;-87
2022/08/17 10:10:45;;;;;;;;;;;24.70;95.50;;;;;;5091385;28;19904;-87
2022/08/17 10:13:25;;;;;;;;;;;24.70;95.50;;;;;;5103913;28;19908;-87
2022/08/17 10:16:06;;;;;;;;;;;24.70;95.50;;;;;;5092355;28;19953;-87
2022/08/17 10:18:50;;;;;;;;;;;24.80;95.50;;;;;;5093064;28;19904;-87
2022/08/17 10:27:09;;;;;;;;;;;24.80;95.40;;;;;;5102122;28;19954;-86
2022/08/17 10:29:40;;;;;;;;;;;24.90;95.40;;;;;;5129938;28;19904;-86
2022/08/17 10:32:09;;;;;;;;;;;24.90;95.40;;;;;;5105346;28;19904;-87
2022/08/17 10:34:44;;;;;;;;;;;24.90;95.40;;;;;;5105984;28;19903;-87
2022/08/17 10:37:21;;;;;;;;;;;24.90;95.40;;;;;;5101872;28;20286;-88
2022/08/17 10:40:06;;;;;;;;;;;24.90;95.30;;;;;;5108584;28;19904;-87
2022/08/17 10:42:42;;;;;;;;;;;25.00;95.30;;;;;;5088436;28;19912;-87
2022/08/17 10:45:20;;;;;;;;;;;25.00;95.40;;;;;;5088643;28;19908;-87
2022/08/17 10:48:04;;;;;;;;;;;25.00;95.20;;;;;;5086021;28;19904;-87
2022/08/17 10:50:48;;;;;;;;;;;25.00;95.00;;;;;;5093485;28;19903;-88
2022/08/17 10:53:32;;;;;;;;;;;25.00;94.80;;;;;;5085081;28;19930;-88
2022/08/17 10:56:21;;;;;;;;;;;25.00;94.80;;;;;;5088883;28;19908;-87
2022/08/17 10:58:48;;;;;;;;;;;25.00;94.60;;;;;;5078165;28;19994;-87
2022/08/17 11:01:14;;;;;;;;;;;24.90;94.40;;;;;;5089439;28;19903;-88
2022/08/17 11:03:54;;;;;;;;;;;24.90;94.40;;;;;;5080777;28;19995;-87
2022/08/17 11:06:24;;;;;;;;;;;24.90;94.40;;;;;;5093611;28;19904;-87
2022/08/17 11:09:01;;;;;;;;;;;24.90;94.50;;;;;;5119892;28;19908;-88
2022/08/17 11:11:38;;;;;;;;;;;24.80;94.40;;;;;;5102055;28;19903;-87
2022/08/17 11:14:15;;;;;;;;;;;24.90;94.40;;;;;;5095850;28;19946;-90
2022/08/17 11:16:46;;;;;;;;;;;24.90;94.50;;;;;;5084265;28;19904;-90
2022/08/17 11:19:38;;;;;;;;;;;24.80;94.30;;;;;;5098454;28;19963;-91
2022/08/17 11:22:04;;;;;;;;;;;24.80;94.50;;;;;;5083416;28;19999;-88
2022/08/17 11:24:37;;;;;;;;;;;24.70;94.60;;;;;;5084109;28;19946;-88
2022/08/17 11:27:08;;;;;;;;;;;24.70;95.00;;;;;;5099914;28;19904;-88
2022/08/17 11:29:46;;;;;;;;;;;24.70;95.10;;;;;;5097796;28;19904;-89
2022/08/17 11:32:27;;;;;;;;;;;24.60;95.20;;;;;;5083662;28;20338;-90
2022/08/17 11:35:04;;;;;;;;;;;24.60;95.30;;;;;;5075387;28;19952;-91
2022/08/17 11:37:38;;;;;;;;;;;24.60;95.50;;;;;;5098665;28;19927;-91
2022/08/17 11:40:25;;;;;;;;;;;24.50;95.70;;;;;;5088294;28;19904;-91
2022/08/17 11:43:09;;;;;;;;;;;24.50;95.90;;;;;;5081927;28;19904;-91
2022/08/17 11:45:44;;;;;;;;;;;24.50;96.10;;;;;;5094587;28;19919;-91
2022/08/17 11:51:33;;;;;;;;;;;24.50;96.30;;;;;;5113983;28;19964;-90
2022/08/17 11:54:03;;;;;;;;;;;24.50;96.50;;;;;;5080145;28;19915;-90
2022/08/17 11:56:48;;;;;;;;;;;24.50;96.50;;;;;;5097717;28;20317;-90
2022/08/17 11:59:31;;;;;;;;;;;24.50;96.60;;;;;;5090865;28;19957;-90
2022/08/17 12:02:01;;;;;;;;;;;24.50;96.90;;;;;;5075734;28;19911;-87
2022/08/17 12:04:28;;;;;;;;;;;24.50;97.10;;;;;;5105288;28;19919;-90
2022/08/17 12:10:31;;;;;;;;;;;24.50;97.30;;;;;;5093362;28;19918;-86
2022/08/17 12:13:04;;;;;;;;;;;24.50;97.30;;;;;;5076628;28;19912;-87
2022/08/17 12:15:32;;;;;;;;;;;24.50;97.40;;;;;;5077168;28;19905;-85
2022/08/17 12:17:58;;;;;;;;;;;24.60;97.50;;;;;;5081851;28;19908;-86
2022/08/17 12:20:28;;;;;;;;;;;24.60;97.60;;;;;;5083746;28;19920;-87
2022/08/17 12:23:32;;;;;;;;;;;24.60;97.80;;;;;;5076638;28;20241;-86
2022/08/17 12:26:02;;;;;;;;;;;24.60;97.70;;;;;;5036303;28;20306;-87
2022/08/17 12:28:27;;;;;;;;;;;24.50;97.60;;;;;;5036137;28;19927;-85
2022/08/17 12:33:56;;;;;;;;;;;24.50;98.00;;;;;;5094548;28;19915;-86
2022/08/17 12:36:23;;;;;;;;;;;24.50;97.80;;;;;;5077083;28;19987;-86
2022/08/17 12:38:51;;;;;;;;;;;24.50;97.90;;;;;;5076573;28;19904;-89
2022/08/17 12:41:28;;;;;;;;;;;24.60;98.00;;;;;;5077098;28;19904;-88
2022/08/17 12:44:14;;;;;;;;;;;24.60;98.10;;;;;;5077725;28;19911;-88
2022/08/17 12:46:50;;;;;;;;;;;24.60;98.10;;;;;;5071459;28;19904;-88
2022/08/17 12:49:25;;;;;;;;;;;24.60;98.20;;;;;;5077944;28;19935;-88
2022/08/17 12:51:55;;;;;;;;;;;24.60;98.20;;;;;;5076665;28;19943;-88
2022/08/17 12:54:22;;;;;;;;;;;24.60;98.30;;;;;;5084382;28;19914;-88
2022/08/17 12:56:48;;;;;;;;;;;24.60;98.30;;;;;;5084350;28;20361;-89
2022/08/17 12:59:14;;;;;;;;;;;24.60;98.30;;;;;;5060294;28;19908;-88
2022/08/17 13:01:40;;;;;;;;;;;24.60;98.30;;;;;;5077838;28;20349;-88
2022/08/17 13:04:10;;;;;;;;;;;24.60;98.40;;;;;;5095163;28;19954;-88
2022/08/17 13:06:36;;;;;;;;;;;24.60;98.40;;;;;;5077294;28;19927;-88
2022/08/17 13:09:13;;;;;;;;;;;24.60;98.50;;;;;;5061812;28;20353;-88
2022/08/17 13:11:54;;;;;;;;;;;24.60;98.60;;;;;;5099357;28;19975;-88
2022/08/17 13:14:19;;;;;;;;;;;24.60;98.60;;;;;;5080946;28;19908;-88
2022/08/17 13:16:50;;;;;;;;;;;24.60;98.60;;;;;;5063654;28;19908;-88
2022/08/17 13:19:20;;;;;;;;;;;24.60;98.60;;;;;;5081111;28;19904;-88
2022/08/17 13:21:47;;;;;;;;;;;24.60;98.70;;;;;;5081286;28;19904;-88
2022/08/17 13:24:16;;;;;;;;;;;24.50;98.60;;;;;;5081109;28;19904;-88
2022/08/17 13:26:44;;;;;;;;;;;24.50;98.70;;;;;;5098859;28;19944;-88
2022/08/17 13:29:24;;;;;;;;;;;24.50;98.70;;;;;;5080746;28;20396;-87
2022/08/17 13:31:51;;;;;;;;;;;24.50;98.70;;;;;;5081007;28;19911;-88
2022/08/17 13:34:24;;;;;;;;;;;24.50;98.70;;;;;;5080804;28;19908;-87
2022/08/17 13:36:51;;;;;;;;;;;24.50;98.80;;;;;;5081420;28;19908;-88
2022/08/17 13:39:18;;;;;;;;;;;24.50;98.90;;;;;;5081126;28;19904;-87
2022/08/17 13:41:44;;;;;;;;;;;24.50;99.10;;;;;;5080594;28;19988;-88
2022/08/17 13:44:28;;;;;;;;;;;24.60;99.20;;;;;;5080381;28;19904;-88
2022/08/17 13:46:55;;;;;;;;;;;24.50;99.30;;;;;;5080862;28;19904;-88
2022/08/17 13:49:21;;;;;;;;;;;24.60;99.50;;;;;;5081734;28;19904;-87
2022/08/17 13:51:50;;;;;;;;;;;24.60;99.50;;;;;;5081236;28;19991;-88
2022/08/17 13:54:23;;;;;;;;;;;24.60;99.50;;;;;;5081196;28;20384;-88
2022/08/17 13:56:51;;;;;;;;;;;24.60;99.50;;;;;;5104756;28;19931;-88
2022/08/17 13:59:32;;;;;;;;;;;24.60;99.50;;;;;;5090809;28;19987;-88
2022/08/17 14:01:58;;;;;;;;;;;24.60;99.60;;;;;;5084070;28;19908;-89
2022/08/17 14:04:26;;;;;;;;;;;24.60;99.80;;;;;;5085247;28;19911;-87
2022/08/17 14:06:58;;;;;;;;;;;24.60;99.80;;;;;;5087476;28;19944;-87
2022/08/17 14:09:30;;;;;;;;;;;24.60;99.80;;;;;;5082153;28;19904;-87
2022/08/17 14:11:57;;;;;;;;;;;24.60;99.80;;;;;;5098448;28;19970;-87
2022/08/17 14:14:23;;;;;;;;;;;24.50;99.80;;;;;;5098502;28;19908;-87
2022/08/17 14:16:49;;;;;;;;;;;24.60;99.80;;;;;;5079835;28;20341;-88
2022/08/17 14:19:15;;;;;;;;;;;24.50;99.80;;;;;;5083608;28;19984;-88
2022/08/17 14:21:45;;;;;;;;;;;24.50;99.90;;;;;;5080876;23;20380;-85
2022/08/17 14:24:19;;;;;;;;;;;24.50;99.90;;;;;;5058452;28;19905;-85
2022/08/17 14:26:44;;;;;;;;;;;24.50;99.90;;;;;;5067056;28;19991;-85
2022/08/17 14:29:09;;;;;;;;;;;24.50;99.90;;;;;;5069005;28;19905;-84
2022/08/17 14:31:35;;;;;;;;;;;24.50;99.90;;;;;;5050613;28;20264;-82
2022/08/17 14:34:01;;;;;;;;;;;24.60;99.90;;;;;;5068965;28;19928;-83
2022/08/17 14:36:26;;;;;;;;;;;24.60;99.90;;;;;;5051616;28;19919;-84
2022/08/17 14:38:52;;;;;;;;;;;24.60;99.90;;;;;;5050959;28;20430;-84
2022/08/17 14:41:17;;;;;;;;;;;24.60;99.90;;;;;;5049620;28;19912;-83
2022/08/17 14:43:44;;;;;;;;;;;24.60;99.90;;;;;;5049858;28;19908;-83
2022/08/17 14:46:11;;;;;;;;;;;24.70;99.90;;;;;;5047017;28;20077;-84
2022/08/17 14:48:39;;;;;;;;;;;24.70;99.90;;;;;;5033968;28;19909;-85
2022/08/17 14:51:05;;;;;;;;;;;24.70;99.90;;;;;;5044253;28;19909;-86
2022/08/17 14:53:30;;;;;;;;;;;24.70;99.90;;;;;;5058143;28;19909;-84
2022/08/17 14:55:56;;;;;;;;;;;24.70;99.90;;;;;;5041610;28;19948;-84
2022/08/17 14:58:22;;;;;;;;;;;24.80;99.90;;;;;;5058699;28;20006;-84
2022/08/17 15:00:49;;;;;;;;;;;24.80;99.90;;;;;;5059452;28;19962;-84
2022/08/17 15:03:16;;;;;;;;;;;24.80;99.90;;;;;;5041091;28;19908;-83
2022/08/17 15:05:45;;;;;;;;;;;24.80;99.90;;;;;;5055857;28;19905;-82